Etusivu
METAR-TAF:

METAR-TAF

Lentoasemat :

Chengdu Shuangliun kansainvälinen lentoasema

Chengdu, Kiina

Leveyspiiri: 30-40N, Pituuspiiri: 104-01E, korkeus merenpinnasta: 508 m

Tämänhetkinen sää

Tämä raportti tehtiin 30 minuuttia sitten, kello 03.00 UTC
Tuuli 8 kn koillisesta
Lämpötila 13°C
Kosteus 51%
Ilmanpaine 1031 hPa
Näkyvyys: 7000 m

METAR: ZUUU 210300Z 04004MPS 7000 NSC 13/03 Q1031 NOSIG

Aika: 11:30 (03:30 UTC)

Sääennuste

Tämä raportti tehtiin 7 tuntia ja 27 minuuttia sitten, kello 20.03 UTC
Ennuste voimassa 21. päivästä klo 00 UTC - 21. päivään klo 24 UTC
Tuuli 6 kn pohjoisesta/koillisesta
Näkyvyys: 3500 m
Hajanaisia pilviä 5000 ft:n korkeudessa
utua

TAF: ZUUU 202003Z 2100/2124 02003MPS 3500 BR SCT050 TX13/2108Z TN07/2121Z

Säähavainnot ja -ennusteet yli 4000 lentoasemalta (METAR- ja TAF-raportit).

Käytössä olevat sääasemat on merkitty karttaan keltaisilla ja punaisilla pisteillä.

Aseta hiiri pisteen päälle nähdäksesi sääaseman nimen.

Klikkaa sitten nähdäksesi säähavainnot ja -ennusteet.

Kartan vaihtaminen: klikkaa mustalla rastilla varustettuja vihreitä pisteitä, niin voit zoomata sisään; viivalla varustettua vihreää pistettä, niin voit zoomata ulos tai vihreitä nuolia, niin pääset viereisille kartoille.


METAR-TAF: